createdAt,value
2023-11-21T00:01:50.614Z,1.23
2023-11-21T00:04:53.499Z,1.45
2023-11-21T00:07:55.843Z,1.30
2023-11-21T00:10:58.301Z,1.23
2023-11-21T00:14:00.779Z,1.20
2023-11-21T00:17:02.805Z,1.40
2023-11-21T00:20:07.804Z,1.40
2023-11-21T00:23:11.209Z,1.30
2023-11-21T00:26:13.640Z,1.30
2023-11-21T00:29:18.533Z,1.35
2023-11-21T00:32:20.871Z,1.40
2023-11-21T00:35:22.836Z,1.63
2023-11-21T00:38:25.507Z,1.20
2023-11-21T00:41:28.802Z,1.40
2023-11-21T00:44:31.047Z,1.40
2023-11-21T00:47:35.657Z,1.30
2023-11-21T00:50:38.011Z,1.08
2023-11-21T00:53:40.565Z,1.25
2023-11-21T00:56:42.907Z,1.13
2023-11-21T00:59:44.896Z,1.20
2023-11-21T01:02:47.957Z,1.58
2023-11-21T01:05:51.369Z,1.25
2023-11-21T01:08:53.743Z,1.58
2023-11-21T01:11:55.667Z,1.27
2023-11-21T01:15:01.335Z,1.30
2023-11-21T01:18:04.868Z,1.30
2023-11-21T01:21:08.721Z,1.33
2023-11-21T01:24:10.688Z,1.35
2023-11-21T01:27:13.067Z,1.50
2023-11-21T01:30:15.663Z,1.50
2023-11-21T01:33:18.033Z,1.00
2023-11-21T01:36:20.072Z,1.10
2023-11-21T01:39:25.058Z,1.27
2023-11-21T01:42:28.206Z,1.67
2023-11-21T01:45:34.483Z,1.55
2023-11-21T01:48:36.792Z,2.30
2023-11-21T01:51:39.243Z,1.50
2023-11-21T01:54:42.101Z,1.50
2023-11-21T01:57:47.854Z,1.90
2023-11-21T02:00:52.113Z,1.58
2023-11-21T02:03:54.532Z,1.42
2023-11-21T02:06:57.297Z,1.92
2023-11-21T02:10:00.234Z,1.25
2023-11-21T02:13:04.289Z,1.40
2023-11-21T02:19:13.724Z,1.90
2023-11-21T02:22:18.013Z,1.60
2023-11-21T02:25:20.101Z,1.55
2023-11-21T02:28:27.198Z,1.48
2023-11-21T02:31:29.554Z,1.48
2023-11-21T02:34:31.918Z,1.63
2023-11-21T02:37:33.910Z,1.25
2023-11-21T02:40:36.230Z,1.30
2023-11-21T02:43:39.893Z,1.52
2023-11-21T02:46:42.490Z,1.58
2023-11-21T02:49:44.565Z,1.20
2023-11-21T02:52:47.215Z,1.33
2023-11-21T02:55:49.969Z,1.40
2023-11-21T02:58:52.369Z,1.40
2023-11-21T03:01:54.478Z,1.02
2023-11-21T03:04:56.801Z,1.00
2023-11-21T03:07:58.867Z,1.45
2023-11-21T03:11:06.001Z,1.35
2023-11-21T03:14:08.101Z,3.03
2023-11-21T03:17:10.387Z,1.30
2023-11-21T03:20:12.890Z,1.55
2023-11-21T03:23:16.322Z,1.35
2023-11-21T03:26:18.323Z,1.60
2023-11-21T03:29:20.738Z,1.15
2023-11-21T03:32:22.826Z,1.30
2023-11-21T03:35:25.814Z,1.40
2023-11-21T03:38:27.996Z,1.65
2023-11-21T03:41:30.394Z,1.60
2023-11-21T03:44:32.393Z,1.60
2023-11-21T03:47:34.656Z,1.60
2023-11-21T03:50:36.885Z,1.52
2023-11-21T03:53:39.241Z,1.38
2023-11-21T03:56:43.617Z,1.92
2023-11-21T03:59:45.917Z,1.83
2023-11-21T04:02:48.003Z,1.20
2023-11-21T04:05:50.414Z,1.33
2023-11-21T04:08:52.384Z,1.45
2023-11-21T04:11:54.892Z,1.58
2023-11-21T04:14:56.826Z,1.60
2023-11-21T04:17:59.712Z,1.65
2023-11-21T04:21:01.772Z,1.10
2023-11-21T04:24:04.317Z,1.15
2023-11-21T04:27:06.386Z,0.98
2023-11-21T04:30:09.043Z,1.10
2023-11-21T04:33:11.068Z,1.30
2023-11-21T04:36:13.362Z,1.77
2023-11-21T04:39:15.326Z,1.48
2023-11-21T04:42:17.644Z,1.65
2023-11-21T04:45:19.673Z,1.83
2023-11-21T04:48:22.119Z,2.05
2023-11-21T04:51:24.113Z,1.85
2023-11-21T04:54:28.618Z,2.72
2023-11-21T04:57:31.001Z,2.42
2023-11-21T05:00:33.548Z,3.10
2023-11-21T05:03:36.311Z,2.47
2023-11-21T05:06:38.703Z,2.70
2023-11-21T05:09:45.251Z,2.70
2023-11-21T05:12:47.754Z,2.60
2023-11-21T05:15:50.842Z,2.70
2023-11-21T05:18:53.073Z,2.83
2023-11-21T05:21:55.084Z,3.25
2023-11-21T05:24:57.594Z,2.63
2023-11-21T05:28:02.431Z,3.17
2023-11-21T05:31:10.900Z,2.65
2023-11-21T05:34:18.971Z,3.10
2023-11-21T05:37:21.442Z,3.45
2023-11-21T05:40:23.943Z,3.80
2023-11-21T05:43:26.322Z,3.58
2023-11-21T05:46:28.335Z,3.70
2023-11-21T05:49:31.260Z,4.38
2023-11-21T05:52:33.941Z,3.75
2023-11-21T05:55:36.259Z,3.67
2023-11-21T05:58:38.313Z,3.50
2023-11-21T06:01:40.640Z,3.97
2023-11-21T06:04:42.728Z,3.45
2023-11-21T06:07:45.580Z,4.00
2023-11-21T06:10:50.427Z,3.60
2023-11-21T06:13:54.554Z,4.13
2023-11-21T06:16:57.797Z,4.13
2023-11-21T06:20:00.423Z,5.28
2023-11-21T06:23:04.917Z,4.80
2023-11-21T06:26:07.328Z,4.78
2023-11-21T06:29:09.327Z,4.25
2023-11-21T06:32:11.842Z,4.78
2023-11-21T06:35:14.540Z,4.45
2023-11-21T06:38:16.958Z,4.18
2023-11-21T06:41:19.142Z,4.43
2023-11-21T06:44:21.404Z,3.45
2023-11-21T06:47:23.445Z,3.78
2023-11-21T06:50:25.814Z,3.88
2023-11-21T06:53:27.810Z,3.83
2023-11-21T06:56:30.109Z,4.10
2023-11-21T06:59:32.213Z,4.72
2023-11-21T07:02:37.110Z,4.20
2023-11-21T07:05:40.348Z,4.50
2023-11-21T07:08:43.815Z,4.38
2023-11-21T07:11:45.851Z,4.40
2023-11-21T07:14:48.140Z,4.40
2023-11-21T07:17:50.288Z,4.25
2023-11-21T07:20:53.220Z,4.15
2023-11-21T07:23:55.199Z,4.47
2023-11-21T07:26:57.878Z,4.10
2023-11-21T07:29:59.996Z,4.38
2023-11-21T07:33:02.571Z,3.90
2023-11-21T07:36:04.868Z,3.95
2023-11-21T07:39:07.885Z,3.85
2023-11-21T07:42:10.339Z,3.58
2023-11-21T07:45:12.804Z,3.38
2023-11-21T07:48:15.017Z,4.55
2023-11-21T07:51:17.901Z,5.05
2023-11-21T07:54:19.980Z,4.43
2023-11-21T07:57:22.369Z,5.13
2023-11-21T08:00:31.414Z,5.43
2023-11-21T08:03:34.036Z,5.40
2023-11-21T08:06:36.505Z,5.38
2023-11-21T08:09:39.004Z,5.18
2023-11-21T08:12:41.119Z,5.50
2023-11-21T08:15:47.986Z,4.80
2023-11-21T08:18:50.144Z,4.85
2023-11-21T08:21:57.192Z,4.03
2023-11-21T08:24:59.572Z,5.20
2023-11-21T08:28:02.843Z,4.95
2023-11-21T08:31:05.778Z,6.57
2023-11-21T08:34:08.298Z,6.93
2023-11-21T08:37:10.389Z,7.28
2023-11-21T08:40:18.125Z,6.68
2023-11-21T08:43:21.239Z,7.00
2023-11-21T08:46:24.267Z,4.95
2023-11-21T08:49:28.841Z,5.25
2023-11-21T08:52:31.462Z,7.47
2023-11-21T08:55:38.784Z,5.40
2023-11-21T08:58:42.996Z,3.95
2023-11-21T09:01:45.272Z,5.00
2023-11-21T09:04:48.646Z,6.03
2023-11-21T09:07:50.865Z,5.38
2023-11-21T09:10:53.157Z,4.32
2023-11-21T09:13:55.446Z,4.72
2023-11-21T09:16:57.880Z,3.60
2023-11-21T09:19:59.987Z,4.20
2023-11-21T09:23:02.524Z,4.20
2023-11-21T09:26:06.515Z,3.90
2023-11-21T09:29:09.764Z,5.07
2023-11-21T09:32:15.390Z,4.75
2023-11-21T09:35:18.811Z,5.25
2023-11-21T09:38:21.107Z,4.43
2023-11-21T09:41:41.865Z,4.05
2023-11-21T09:45:00.574Z,3.90
2023-11-21T09:48:03.843Z,4.25
2023-11-21T09:51:07.300Z,4.68
2023-11-21T09:54:12.369Z,4.88
2023-11-21T09:57:15.369Z,6.20
2023-11-21T10:00:19.413Z,5.63
2023-11-21T10:03:22.399Z,6.80
2023-11-21T10:06:27.894Z,5.93
2023-11-21T10:09:31.931Z,5.25
2023-11-21T10:12:34.811Z,5.00
2023-11-21T10:15:37.129Z,7.05
2023-11-21T10:18:41.679Z,7.88
2023-11-21T10:21:43.862Z,7.32
2023-11-21T10:24:52.395Z,7.15
2023-11-21T10:28:06.317Z,7.60
2023-11-21T10:31:08.971Z,8.57
2023-11-21T10:34:19.557Z,8.75
2023-11-21T10:37:21.860Z,7.82
2023-11-21T10:40:23.977Z,6.75
2023-11-21T10:43:28.078Z,6.07
2023-11-21T10:46:31.853Z,8.95
2023-11-21T10:49:34.242Z,9.77
2023-11-21T10:52:37.492Z,8.25
2023-11-21T10:55:45.588Z,7.53
2023-11-21T10:58:55.469Z,7.63
2023-11-21T11:01:59.622Z,7.30
2023-11-21T11:05:03.196Z,5.53
2023-11-21T11:08:09.226Z,6.40
2023-11-21T11:11:11.594Z,5.72
2023-11-21T11:14:17.339Z,6.10
2023-11-21T11:17:23.895Z,6.18
2023-11-21T11:20:38.487Z,4.10
2023-11-21T11:23:51.552Z,5.80
2023-11-21T11:27:17.213Z,4.40
2023-11-21T11:30:47.933Z,5.05
2023-11-21T11:34:02.043Z,4.30
2023-11-21T11:37:07.533Z,3.95
2023-11-21T11:40:13.331Z,4.88
2023-11-21T11:43:29.093Z,3.40
2023-11-21T11:46:48.728Z,4.15
2023-11-21T11:49:59.356Z,3.13
2023-11-21T11:53:15.646Z,2.70
2023-11-21T11:56:24.009Z,3.53
2023-11-21T11:59:27.152Z,3.33
2023-11-21T12:02:29.576Z,3.90
2023-11-21T12:05:42.788Z,4.55
2023-11-21T12:08:46.578Z,3.97
2023-11-21T12:11:50.054Z,3.63
2023-11-21T12:14:52.309Z,3.90
2023-11-21T12:17:54.622Z,4.55
2023-11-21T12:20:56.844Z,4.13
2023-11-21T12:23:59.740Z,4.70
2023-11-21T12:27:01.729Z,5.03
2023-11-21T12:30:04.311Z,3.38
2023-11-21T12:33:08.211Z,3.47
2023-11-21T12:36:12.456Z,4.70
2023-11-21T12:39:15.783Z,4.57
2023-11-21T12:42:18.831Z,5.22
2023-11-21T12:45:29.027Z,7.18
2023-11-21T12:48:33.152Z,6.05
2023-11-21T12:51:35.202Z,4.55
2023-11-21T12:54:37.502Z,5.38
2023-11-21T12:57:44.280Z,5.53
2023-11-21T13:00:48.771Z,6.00
2023-11-21T13:03:52.514Z,6.80
2023-11-21T13:06:56.796Z,6.22
2023-11-21T13:09:58.922Z,4.30
2023-11-21T13:13:02.358Z,5.28
2023-11-21T13:16:09.380Z,5.03
2023-11-21T13:19:12.800Z,3.58
2023-11-21T13:22:14.772Z,4.68
2023-11-21T13:25:23.180Z,4.18
2023-11-21T13:28:28.004Z,3.80
2023-11-21T13:31:34.008Z,3.95
2023-11-21T13:34:37.900Z,3.60
2023-11-21T13:37:44.996Z,3.35
2023-11-21T13:40:54.652Z,3.67
2023-11-21T13:44:10.510Z,3.55
2023-11-21T13:47:12.638Z,3.90
2023-11-21T13:50:20.329Z,4.53
2023-11-21T13:53:31.856Z,3.78
2023-11-21T13:56:34.442Z,3.97
2023-11-21T13:59:37.959Z,3.70
2023-11-21T14:02:44.037Z,3.93
2023-11-21T14:05:49.102Z,2.72
2023-11-21T14:08:52.605Z,3.13
2023-11-21T14:11:58.052Z,3.30
2023-11-21T14:15:01.158Z,3.15
2023-11-21T14:18:07.507Z,4.40
2023-11-21T14:21:11.804Z,5.72
2023-11-21T14:24:13.968Z,5.60
2023-11-21T14:27:16.540Z,4.78
2023-11-21T14:30:20.950Z,4.68
2023-11-21T14:33:24.067Z,4.13
2023-11-21T14:36:27.052Z,5.22
2023-11-21T14:39:29.464Z,4.82
2023-11-21T14:42:31.447Z,4.70
2023-11-21T14:45:35.060Z,4.82
2023-11-21T14:48:43.812Z,4.40
2023-11-21T14:52:01.616Z,4.78
2023-11-21T14:55:22.833Z,4.50
2023-11-21T14:58:28.041Z,4.35
2023-11-21T15:02:02.280Z,4.60
2023-11-21T15:05:06.734Z,4.55
2023-11-21T15:08:22.966Z,4.63
2023-11-21T15:11:32.051Z,4.38
2023-11-21T15:14:37.986Z,4.68
2023-11-21T15:17:44.484Z,4.22
2023-11-21T15:20:46.604Z,4.47
2023-11-21T15:23:49.267Z,3.45
2023-11-21T15:26:51.783Z,4.38
2023-11-21T15:29:54.845Z,4.03
2023-11-21T15:32:57.371Z,3.60
2023-11-21T15:36:00.162Z,3.75
2023-11-21T15:39:02.409Z,3.53
2023-11-21T15:42:06.270Z,3.70
2023-11-21T15:45:09.660Z,3.15
2023-11-21T15:48:13.246Z,3.55
2023-11-21T15:51:15.390Z,3.28
2023-11-21T15:54:17.742Z,3.08
2023-11-21T15:57:23.103Z,2.28
2023-11-21T16:00:25.695Z,2.55
2023-11-21T16:03:29.765Z,3.28
2023-11-21T16:06:32.244Z,3.88
2023-11-21T16:09:37.576Z,3.33
2023-11-21T16:12:41.525Z,2.92
2023-11-21T16:15:43.942Z,3.03
2023-11-21T16:18:46.623Z,3.20
2023-11-21T16:21:49.215Z,3.17
2023-11-21T16:24:51.530Z,2.92
2023-11-21T16:27:53.546Z,2.40
2023-11-21T16:30:55.848Z,3.17
2023-11-21T16:34:01.004Z,2.33
2023-11-21T16:37:04.898Z,1.60
2023-11-21T16:40:10.224Z,1.95
2023-11-21T16:43:12.696Z,3.53
2023-11-21T16:46:15.212Z,2.83
2023-11-21T16:49:17.980Z,2.10
2023-11-21T16:52:23.755Z,2.42
2023-11-21T16:55:26.259Z,3.55
2023-11-21T16:58:28.235Z,3.00
2023-11-21T17:01:31.007Z,3.50
2023-11-21T17:04:33.572Z,3.78
2023-11-21T17:07:35.802Z,3.03
2023-11-21T17:10:38.314Z,4.05
2023-11-21T17:13:43.499Z,3.72
2023-11-21T17:19:49.358Z,2.00
2023-11-21T17:22:51.372Z,1.50
2023-11-21T17:25:54.045Z,3.22
2023-11-21T17:28:56.853Z,3.03
2023-11-21T17:31:59.305Z,1.67
2023-11-21T17:35:01.814Z,1.80
2023-11-21T17:38:04.181Z,1.85
2023-11-21T17:41:06.251Z,1.63
2023-11-21T17:44:08.969Z,1.88
2023-11-21T17:47:12.095Z,2.35
2023-11-21T17:50:15.260Z,2.17
2023-11-21T17:53:17.727Z,2.13
2023-11-21T17:56:20.722Z,2.53
2023-11-21T17:59:23.674Z,2.47
2023-11-21T18:02:26.685Z,4.18
2023-11-21T18:05:28.759Z,4.03
2023-11-21T18:08:31.095Z,3.85
2023-11-21T18:11:33.103Z,4.57
2023-11-21T18:14:37.148Z,4.28
2023-11-21T18:17:43.575Z,5.07
2023-11-21T18:20:53.788Z,5.32
2023-11-21T18:23:56.134Z,4.93
2023-11-21T18:26:58.459Z,5.15
2023-11-21T18:30:03.712Z,5.22
2023-11-21T18:33:06.146Z,5.53
2023-11-21T18:36:08.972Z,4.95
2023-11-21T18:39:15.695Z,4.30
2023-11-21T18:42:18.648Z,4.43
2023-11-21T18:45:20.961Z,4.85
2023-11-21T18:48:23.347Z,4.30
2023-11-21T18:51:25.818Z,5.03
2023-11-21T18:54:27.980Z,4.40
2023-11-21T18:57:32.665Z,4.78
2023-11-21T19:00:34.867Z,5.38
2023-11-21T19:03:37.220Z,4.63
2023-11-21T19:06:39.334Z,4.85
2023-11-21T19:09:41.917Z,5.32
2023-11-21T19:12:52.470Z,4.88
2023-11-21T19:15:54.749Z,4.40
2023-11-21T19:18:59.963Z,4.18
2023-11-21T19:22:02.318Z,4.20
2023-11-21T19:25:07.666Z,4.00
2023-11-21T19:28:09.913Z,3.88
2023-11-21T19:31:19.863Z,3.85
2023-11-21T19:34:22.251Z,3.95
2023-11-21T19:37:24.423Z,4.25
2023-11-21T19:40:26.768Z,4.30
2023-11-21T19:43:32.381Z,4.00
2023-11-21T19:46:34.823Z,3.88
2023-11-21T19:49:36.817Z,4.32
2023-11-21T19:52:39.208Z,3.80
2023-11-21T19:55:41.187Z,4.55
2023-11-21T19:58:43.406Z,4.28
2023-11-21T20:01:45.466Z,4.07
2023-11-21T20:04:47.843Z,3.90
2023-11-21T20:07:49.788Z,4.03
2023-11-21T20:10:52.171Z,4.28
2023-11-21T20:13:54.990Z,4.47
2023-11-21T20:16:59.896Z,4.70
2023-11-21T20:23:05.972Z,4.50
2023-11-21T20:26:08.028Z,4.47
2023-11-21T20:29:10.626Z,4.35
2023-11-21T20:32:12.921Z,4.43
2023-11-21T20:35:37.432Z,4.72
2023-11-21T20:38:39.702Z,4.55
2023-11-21T20:41:42.563Z,3.95
2023-11-21T20:44:44.587Z,4.00
2023-11-21T20:47:47.037Z,4.43
2023-11-21T20:50:49.157Z,4.55
2023-11-21T20:53:51.409Z,4.65
2023-11-21T20:56:53.664Z,4.55
2023-11-21T20:59:56.026Z,4.32
2023-11-21T21:02:58.306Z,5.05
2023-11-21T21:06:01.146Z,3.45
2023-11-21T21:09:03.197Z,3.33
2023-11-21T21:12:06.209Z,2.80
2023-11-21T21:15:11.247Z,3.15
2023-11-21T21:18:13.566Z,3.05
2023-11-21T21:21:15.610Z,3.33
2023-11-21T21:24:17.955Z,3.92
2023-11-21T21:27:19.960Z,3.35
2023-11-21T21:30:22.752Z,2.85
2023-11-21T21:33:24.755Z,3.53
2023-11-21T21:36:27.286Z,3.28
2023-11-21T21:39:29.363Z,3.33
2023-11-21T21:42:31.639Z,3.17
2023-11-21T21:45:33.754Z,2.92
2023-11-21T21:48:42.104Z,3.40
2023-11-21T21:51:45.017Z,3.30
2023-11-21T21:54:47.824Z,3.50
2023-11-21T21:57:49.904Z,3.45
2023-11-21T22:00:52.172Z,3.60
2023-11-21T22:03:54.409Z,3.60
2023-11-21T22:06:56.832Z,2.70
2023-11-21T22:09:58.794Z,2.50
2023-11-21T22:13:01.185Z,2.70
2023-11-21T22:16:03.235Z,2.72
2023-11-21T22:19:07.215Z,2.65
2023-11-21T22:22:09.486Z,2.78
2023-11-21T22:25:12.519Z,2.53
2023-11-21T22:28:14.449Z,3.40
2023-11-21T22:31:16.666Z,3.67
2023-11-21T22:34:19.398Z,3.85
2023-11-21T22:37:22.057Z,3.60
2023-11-21T22:40:24.012Z,3.33
2023-11-21T22:43:26.278Z,2.45
2023-11-21T22:46:30.558Z,2.70
2023-11-21T22:49:33.256Z,2.42
2023-11-21T22:52:35.200Z,2.60
2023-11-21T22:55:37.463Z,2.65
2023-11-21T22:58:40.629Z,2.80
2023-11-21T23:01:42.973Z,3.17
2023-11-21T23:04:45.194Z,2.55
2023-11-21T23:07:47.723Z,3.10
2023-11-21T23:10:54.313Z,2.60
2023-11-21T23:13:56.641Z,3.00
2023-11-21T23:16:59.452Z,3.20
2023-11-21T23:20:07.079Z,3.80
2023-11-21T23:23:09.066Z,3.88
2023-11-21T23:26:16.164Z,3.65
2023-11-21T23:29:18.284Z,3.35
2023-11-21T23:32:22.343Z,2.80
2023-11-21T23:35:25.059Z,2.80
2023-11-21T23:38:27.519Z,2.75
2023-11-21T23:41:29.470Z,2.58
2023-11-21T23:44:31.943Z,2.63
2023-11-21T23:47:34.032Z,2.30
2023-11-21T23:50:36.428Z,2.47
2023-11-21T23:53:38.382Z,3.35
2023-11-21T23:56:40.809Z,3.70
2023-11-21T23:59:42.774Z,3.83
